createdAt,value
2022-07-25T00:02:39.679Z,23.02
2022-07-25T00:04:42.766Z,23.11
2022-07-25T00:06:47.638Z,23.08
2022-07-25T00:08:50.407Z,23.08
2022-07-25T00:10:53.130Z,22.96
2022-07-25T00:12:55.825Z,22.92
2022-07-25T00:14:58.534Z,22.89
2022-07-25T00:17:02.181Z,22.90
2022-07-25T00:19:05.195Z,22.89
2022-07-25T00:21:07.990Z,22.89
2022-07-25T00:23:12.005Z,22.75
2022-07-25T00:25:14.938Z,22.57
2022-07-25T00:27:17.626Z,22.57
2022-07-25T00:29:20.307Z,22.53
2022-07-25T00:31:23.152Z,22.50
2022-07-25T00:33:25.948Z,22.62
2022-07-25T00:35:28.769Z,22.62
2022-07-25T00:37:31.430Z,22.60
2022-07-25T00:39:35.813Z,22.53
2022-07-25T00:41:39.305Z,22.48
2022-07-25T00:43:44.128Z,22.35
2022-07-25T00:45:46.858Z,22.39
2022-07-25T00:47:49.516Z,22.44
2022-07-25T00:49:52.227Z,22.36
2022-07-25T00:51:55.992Z,22.21
2022-07-25T00:53:58.917Z,22.21
2022-07-25T00:56:03.038Z,22.23
2022-07-25T00:58:05.746Z,22.36
2022-07-25T01:00:12.196Z,22.40
2022-07-25T01:02:15.061Z,22.30
2022-07-25T01:04:18.174Z,22.35
2022-07-25T01:06:22.618Z,22.28
2022-07-25T01:08:28.328Z,22.09
2022-07-25T01:10:31.904Z,22.15
2022-07-25T01:12:45.264Z,22.13
2022-07-25T01:14:48.028Z,22.18
2022-07-25T01:16:50.813Z,22.09
2022-07-25T01:18:53.630Z,22.01
2022-07-25T01:20:57.652Z,22.05
2022-07-25T01:23:01.151Z,22.16
2022-07-25T01:25:04.139Z,22.20
2022-07-25T01:27:06.852Z,22.27
2022-07-25T01:29:09.494Z,22.08
2022-07-25T01:31:12.452Z,22.16
2022-07-25T01:33:16.805Z,22.16
2022-07-25T01:35:19.669Z,22.16
2022-07-25T01:37:23.743Z,22.10
2022-07-25T01:39:26.398Z,22.17
2022-07-25T01:41:29.090Z,22.11
2022-07-25T01:43:31.885Z,22.12
2022-07-25T01:45:35.006Z,22.22
2022-07-25T01:47:37.806Z,22.15
2022-07-25T01:49:40.847Z,22.04
2022-07-25T01:51:43.514Z,22.07
2022-07-25T01:53:47.552Z,22.03
2022-07-25T01:55:51.038Z,22.10
2022-07-25T01:57:54.887Z,21.98
2022-07-25T01:59:57.635Z,22.04
2022-07-25T02:02:00.518Z,22.04
2022-07-25T02:04:03.552Z,22.00
2022-07-25T02:06:09.018Z,22.04
2022-07-25T02:08:11.682Z,21.98
2022-07-25T02:10:15.770Z,22.04
2022-07-25T02:12:18.607Z,21.91
2022-07-25T02:14:21.393Z,21.94
2022-07-25T02:16:28.890Z,21.97
2022-07-25T02:18:32.108Z,21.90
2022-07-25T02:20:34.877Z,21.89
2022-07-25T02:22:37.656Z,21.92
2022-07-25T02:24:40.379Z,21.88
2022-07-25T02:26:45.310Z,21.79
2022-07-25T02:28:48.035Z,21.80
2022-07-25T02:30:50.779Z,21.87
2022-07-25T02:32:53.531Z,21.79
2022-07-25T02:34:56.674Z,21.78
2022-07-25T02:36:59.470Z,21.72
2022-07-25T02:39:02.279Z,21.71
2022-07-25T02:41:05.876Z,21.74
2022-07-25T02:43:10.055Z,21.59
2022-07-25T02:45:13.894Z,21.58
2022-07-25T02:47:16.577Z,21.62
2022-07-25T02:49:19.344Z,21.61
2022-07-25T02:51:22.079Z,21.63
2022-07-25T02:53:47.119Z,21.49
2022-07-25T02:55:47.726Z,21.48
2022-07-25T02:57:50.463Z,21.46
2022-07-25T02:59:54.469Z,21.39
2022-07-25T03:01:57.151Z,21.44
2022-07-25T03:03:59.874Z,21.47
2022-07-25T03:06:02.624Z,21.39
2022-07-25T03:08:05.944Z,21.48
2022-07-25T03:10:11.345Z,21.43
2022-07-25T03:12:14.472Z,21.47
2022-07-25T03:14:17.266Z,21.53
2022-07-25T03:16:21.492Z,21.50
2022-07-25T03:18:24.207Z,21.49
2022-07-25T03:20:26.975Z,21.40
2022-07-25T03:22:29.954Z,21.43
2022-07-25T03:24:32.615Z,21.49
2022-07-25T03:26:35.360Z,21.43
2022-07-25T03:28:38.139Z,21.37
2022-07-25T03:30:40.781Z,21.33
2022-07-25T03:32:44.819Z,21.37
2022-07-25T03:34:47.510Z,21.27
2022-07-25T03:36:50.170Z,21.27
2022-07-25T03:38:52.958Z,21.24
2022-07-25T03:40:55.580Z,21.19
2022-07-25T03:42:58.672Z,21.20
2022-07-25T03:45:01.332Z,21.21
2022-07-25T03:47:04.004Z,21.25
2022-07-25T03:49:08.219Z,21.26
2022-07-25T03:51:10.931Z,21.26
2022-07-25T03:53:13.573Z,21.23
2022-07-25T03:55:16.299Z,21.25
2022-07-25T03:57:18.986Z,21.25
2022-07-25T03:59:22.571Z,21.20
2022-07-25T04:01:25.363Z,21.24
2022-07-25T04:03:29.833Z,21.15
2022-07-25T04:05:33.882Z,21.25
2022-07-25T04:07:36.575Z,21.32
2022-07-25T04:09:39.903Z,21.32
2022-07-25T04:11:43.236Z,21.25
2022-07-25T04:13:46.077Z,21.27
2022-07-25T04:15:48.693Z,21.33
2022-07-25T04:17:51.379Z,21.38
2022-07-25T04:19:54.749Z,21.28
2022-07-25T04:21:58.916Z,21.35
2022-07-25T04:24:01.572Z,21.27
2022-07-25T04:26:04.601Z,21.42
2022-07-25T04:28:07.346Z,21.50
2022-07-25T04:30:11.605Z,21.49
2022-07-25T04:32:14.727Z,21.54
2022-07-25T04:34:17.821Z,21.56
2022-07-25T04:36:20.518Z,21.74
2022-07-25T04:38:24.767Z,22.20
2022-07-25T04:40:27.507Z,23.06
2022-07-25T04:42:30.198Z,23.73
2022-07-25T04:44:32.830Z,24.09
2022-07-25T04:46:36.048Z,24.72
2022-07-25T04:48:38.929Z,25.35
2022-07-25T04:50:43.880Z,25.00
2022-07-25T04:52:46.645Z,25.64
2022-07-25T04:54:50.856Z,25.00
2022-07-25T04:56:53.487Z,23.80
2022-07-25T04:58:59.553Z,24.02
2022-07-25T05:01:04.724Z,24.43
2022-07-25T05:03:07.408Z,24.74
2022-07-25T05:05:21.559Z,24.53
2022-07-25T05:07:25.081Z,24.44
2022-07-25T05:09:29.618Z,24.47
2022-07-25T05:11:33.647Z,25.05
2022-07-25T05:13:36.335Z,24.92
2022-07-25T05:15:39.025Z,24.91
2022-07-25T05:17:41.724Z,25.68
2022-07-25T05:19:44.489Z,25.69
2022-07-25T05:21:47.150Z,25.17
2022-07-25T05:23:50.171Z,24.74
2022-07-25T05:25:52.798Z,24.56
2022-07-25T05:27:58.588Z,24.34
2022-07-25T05:30:01.262Z,24.58
2022-07-25T05:32:04.038Z,24.33
2022-07-25T05:34:07.287Z,23.90
2022-07-25T05:36:10.376Z,23.69
2022-07-25T05:38:13.019Z,23.69
2022-07-25T05:40:15.720Z,23.57
2022-07-25T05:42:18.405Z,23.57
2022-07-25T05:44:22.766Z,23.49
2022-07-25T05:46:25.776Z,23.49
2022-07-25T05:48:28.677Z,23.48
2022-07-25T05:50:31.567Z,23.48
2022-07-25T05:52:34.266Z,23.79
2022-07-25T05:54:37.393Z,24.07
2022-07-25T05:56:40.067Z,24.36
2022-07-25T05:58:43.328Z,24.52
2022-07-25T06:00:47.417Z,24.92
2022-07-25T06:02:50.311Z,24.90
2022-07-25T06:04:53.064Z,25.14
2022-07-25T06:06:55.761Z,25.14
2022-07-25T06:08:58.378Z,25.29
2022-07-25T06:11:03.879Z,25.17
2022-07-25T06:13:07.733Z,25.03
2022-07-25T06:15:17.663Z,25.24
2022-07-25T06:17:32.052Z,25.21
2022-07-25T06:19:35.179Z,25.32
2022-07-25T06:21:37.905Z,25.13
2022-07-25T06:23:40.655Z,25.89
2022-07-25T06:25:43.335Z,26.22
2022-07-25T06:27:53.117Z,26.41
2022-07-25T06:29:55.908Z,27.10
2022-07-25T06:31:58.611Z,27.49
2022-07-25T06:34:02.700Z,28.77
2022-07-25T06:36:06.412Z,28.90
2022-07-25T06:38:09.226Z,28.77
2022-07-25T06:40:12.477Z,28.26
2022-07-25T06:42:15.356Z,28.09
2022-07-25T06:44:19.154Z,27.80
2022-07-25T06:46:21.892Z,28.70
2022-07-25T06:48:25.181Z,28.15
2022-07-25T06:50:29.479Z,28.67
2022-07-25T06:52:32.356Z,28.13
2022-07-25T06:54:35.823Z,28.66
2022-07-25T06:56:38.511Z,27.84
2022-07-25T06:58:41.281Z,27.47
2022-07-25T07:00:44.123Z,28.02
2022-07-25T07:02:52.304Z,28.39
2022-07-25T07:04:55.029Z,28.48
2022-07-25T07:06:59.068Z,28.65
2022-07-25T07:09:01.921Z,28.44
2022-07-25T07:11:05.172Z,28.27
2022-07-25T07:13:09.661Z,28.94
2022-07-25T07:15:13.187Z,29.86
2022-07-25T07:17:15.947Z,29.73
2022-07-25T07:19:18.881Z,29.59
2022-07-25T07:21:21.830Z,29.41
2022-07-25T07:23:26.112Z,30.54
2022-07-25T07:25:31.928Z,31.06
2022-07-25T07:27:34.971Z,30.87
2022-07-25T07:29:37.774Z,31.10
2022-07-25T07:31:40.939Z,31.27
2022-07-25T07:33:43.634Z,33.13
2022-07-25T07:35:46.470Z,32.51
2022-07-25T07:37:49.246Z,30.61
2022-07-25T07:39:53.309Z,32.43
2022-07-25T07:41:56.486Z,32.03
2022-07-25T07:43:59.247Z,31.98
2022-07-25T07:46:02.108Z,31.63
2022-07-25T07:48:06.033Z,31.74
2022-07-25T07:50:10.565Z,31.92
2022-07-25T07:52:13.232Z,32.08
2022-07-25T07:54:33.816Z,32.22
2022-07-25T07:56:37.847Z,32.48
2022-07-25T07:58:40.645Z,33.08
2022-07-25T08:00:45.343Z,32.47
2022-07-25T08:02:50.282Z,32.65
2022-07-25T08:04:53.047Z,32.82
2022-07-25T08:06:55.787Z,33.32
2022-07-25T08:08:58.546Z,33.34
2022-07-25T08:11:01.235Z,32.27
2022-07-25T08:13:15.251Z,32.87
2022-07-25T08:15:18.756Z,33.91
2022-07-25T08:17:25.039Z,33.14
2022-07-25T08:19:31.127Z,33.87
2022-07-25T08:21:33.855Z,34.21
2022-07-25T08:23:38.980Z,34.28
2022-07-25T08:25:42.970Z,33.77
2022-07-25T08:27:45.992Z,33.86
2022-07-25T08:29:50.073Z,33.84
2022-07-25T08:31:52.816Z,32.99
2022-07-25T08:33:55.527Z,33.90
2022-07-25T08:35:59.174Z,35.20
2022-07-25T08:38:03.247Z,34.41
2022-07-25T08:40:07.186Z,35.27
2022-07-25T08:42:11.206Z,34.88
2022-07-25T08:44:15.339Z,34.66
2022-07-25T08:46:19.570Z,35.87
2022-07-25T08:48:23.725Z,36.38
2022-07-25T08:50:28.626Z,35.97
2022-07-25T08:52:35.189Z,34.71
2022-07-25T08:54:38.073Z,36.35
2022-07-25T08:56:40.761Z,35.56
2022-07-25T08:58:43.861Z,34.52
2022-07-25T09:00:47.361Z,35.00
2022-07-25T09:02:56.025Z,35.84
2022-07-25T09:04:59.617Z,35.74
2022-07-25T09:07:08.058Z,35.40
2022-07-25T09:09:11.078Z,34.97
2022-07-25T09:11:13.826Z,34.74
2022-07-25T09:13:17.788Z,35.56
2022-07-25T09:15:29.353Z,36.27
2022-07-25T09:17:32.310Z,36.36
2022-07-25T09:19:36.769Z,36.66
2022-07-25T09:21:40.839Z,37.36
2022-07-25T09:23:43.533Z,35.16
2022-07-25T09:25:46.267Z,37.24
2022-07-25T09:27:49.018Z,36.01
2022-07-25T09:29:51.751Z,36.66
2022-07-25T09:31:55.870Z,36.80
2022-07-25T09:34:00.304Z,37.80
2022-07-25T09:36:11.980Z,38.03
2022-07-25T09:38:16.604Z,37.27
2022-07-25T09:40:19.736Z,37.54
2022-07-25T09:42:24.317Z,36.44
2022-07-25T09:44:30.287Z,37.40
2022-07-25T09:46:34.017Z,38.43
2022-07-25T09:48:37.125Z,36.32
2022-07-25T09:50:40.129Z,35.16
2022-07-25T09:52:45.780Z,36.57
2022-07-25T09:54:48.560Z,37.23
2022-07-25T09:56:51.276Z,37.67
2022-07-25T09:58:53.975Z,37.70
2022-07-25T10:01:01.832Z,37.27
2022-07-25T10:03:19.520Z,37.87
2022-07-25T10:05:32.099Z,37.26
2022-07-25T10:07:38.317Z,36.53
2022-07-25T10:09:45.691Z,37.34
2022-07-25T10:12:05.319Z,37.36
2022-07-25T10:14:12.161Z,37.21
2022-07-25T10:16:20.495Z,37.99
2022-07-25T10:18:25.496Z,37.61
2022-07-25T10:20:29.915Z,37.11
2022-07-25T10:22:59.051Z,39.15
2022-07-25T10:25:11.429Z,39.55
2022-07-25T10:27:15.891Z,38.85
2022-07-25T10:29:23.074Z,38.15
2022-07-25T10:31:29.091Z,36.58
2022-07-25T10:33:42.265Z,36.95
2022-07-25T10:35:45.705Z,37.04
2022-07-25T10:37:52.014Z,37.09
2022-07-25T10:39:56.454Z,36.38
2022-07-25T10:42:02.743Z,35.73
2022-07-25T10:44:06.236Z,35.83
2022-07-25T10:46:14.549Z,36.14
2022-07-25T10:48:23.126Z,36.56
2022-07-25T10:50:53.283Z,36.25
2022-07-25T10:52:59.566Z,35.79
2022-07-25T10:55:02.734Z,34.97
2022-07-25T10:57:16.331Z,36.16
2022-07-25T10:59:30.930Z,35.91
2022-07-25T11:01:35.686Z,35.96
2022-07-25T11:03:38.517Z,35.46
2022-07-25T11:05:47.843Z,35.74
2022-07-25T11:08:18.863Z,35.44
2022-07-25T11:10:15.504Z,35.53
2022-07-25T11:12:19.624Z,35.88
2022-07-25T11:14:25.179Z,35.89
2022-07-25T11:16:28.313Z,35.67
2022-07-25T11:18:36.411Z,36.01
2022-07-25T11:20:39.154Z,36.80
2022-07-25T11:22:41.886Z,36.30
2022-07-25T11:24:46.458Z,35.09
2022-07-25T11:26:50.593Z,35.21
2022-07-25T11:28:54.686Z,35.79
2022-07-25T11:31:04.476Z,34.92
2022-07-25T11:33:07.398Z,35.12
2022-07-25T11:35:11.292Z,35.41
2022-07-25T11:37:14.589Z,35.43
2022-07-25T11:39:18.981Z,35.66
2022-07-25T11:41:29.955Z,35.64
2022-07-25T11:43:32.722Z,35.52
2022-07-25T11:45:39.303Z,36.28
2022-07-25T11:47:42.118Z,36.26
2022-07-25T11:49:46.232Z,36.61
2022-07-25T11:51:48.907Z,37.24
2022-07-25T11:53:52.786Z,36.91
2022-07-25T11:55:55.488Z,37.23
2022-07-25T11:58:01.128Z,37.77
2022-07-25T12:00:09.287Z,37.39
2022-07-25T12:02:22.616Z,36.79
2022-07-25T12:04:25.449Z,37.02
2022-07-25T12:06:30.651Z,37.06
2022-07-25T12:08:39.451Z,36.98
2022-07-25T12:10:43.704Z,36.97
2022-07-25T12:12:49.601Z,36.07
2022-07-25T12:14:52.590Z,36.35
2022-07-25T12:16:55.608Z,36.29
2022-07-25T12:18:59.721Z,36.96
2022-07-25T12:21:02.414Z,36.90
2022-07-25T12:23:06.908Z,36.42
2022-07-25T12:25:10.744Z,36.26
2022-07-25T12:27:13.446Z,36.19
2022-07-25T12:29:16.112Z,35.82
2022-07-25T12:31:19.163Z,36.27
2022-07-25T12:33:21.890Z,36.84
2022-07-25T12:35:26.950Z,36.93
2022-07-25T12:37:29.782Z,36.99
2022-07-25T12:39:33.550Z,36.89
2022-07-25T12:41:36.507Z,36.59
2022-07-25T12:43:39.246Z,37.56
2022-07-25T12:45:42.650Z,36.68
2022-07-25T12:47:46.455Z,36.48
2022-07-25T12:49:49.183Z,36.71
2022-07-25T12:51:57.909Z,35.92
2022-07-25T12:54:00.953Z,35.77
2022-07-25T12:56:03.721Z,35.34
2022-07-25T12:58:06.475Z,35.23
2022-07-25T13:00:12.870Z,35.37
2022-07-25T13:02:16.066Z,34.81
2022-07-25T13:04:18.801Z,34.30
2022-07-25T13:06:21.635Z,34.10
2022-07-25T13:08:25.934Z,34.23
2022-07-25T13:10:28.741Z,34.23
2022-07-25T13:12:32.085Z,34.01
2022-07-25T13:14:34.875Z,34.31
2022-07-25T13:16:38.366Z,34.44
2022-07-25T13:18:41.128Z,34.99
2022-07-25T13:20:43.842Z,35.19
2022-07-25T13:22:46.579Z,35.67
2022-07-25T13:24:50.851Z,36.12
2022-07-25T13:26:53.589Z,35.72
2022-07-25T13:28:59.807Z,36.02
2022-07-25T13:31:05.765Z,35.68
2022-07-25T13:33:09.959Z,35.31
2022-07-25T13:35:15.365Z,35.10
2022-07-25T13:37:20.608Z,35.09
2022-07-25T13:39:23.293Z,34.63
2022-07-25T13:41:27.768Z,35.10
2022-07-25T13:43:30.414Z,34.60
2022-07-25T13:45:33.241Z,34.89
2022-07-25T13:47:36.440Z,34.84
2022-07-25T13:49:39.170Z,34.85
2022-07-25T13:51:41.804Z,34.82
2022-07-25T13:53:45.761Z,34.78
2022-07-25T13:55:48.876Z,35.20
2022-07-25T13:57:52.878Z,34.90
2022-07-25T13:59:55.549Z,34.55
2022-07-25T14:01:58.313Z,34.80
2022-07-25T14:04:01.121Z,34.46
2022-07-25T14:06:04.095Z,34.53
2022-07-25T14:08:07.516Z,34.26
2022-07-25T14:10:11.137Z,34.23
2022-07-25T14:12:13.839Z,34.31
2022-07-25T14:14:18.191Z,33.79
2022-07-25T14:16:21.166Z,33.85
2022-07-25T14:18:23.818Z,33.62
2022-07-25T14:20:27.155Z,33.52
2022-07-25T14:22:29.989Z,33.52
2022-07-25T14:24:32.669Z,33.41
2022-07-25T14:26:35.885Z,33.23
2022-07-25T14:28:38.592Z,33.01
2022-07-25T14:30:42.693Z,32.89
2022-07-25T14:32:45.429Z,32.97
2022-07-25T14:34:48.062Z,33.20
2022-07-25T14:36:51.044Z,33.65
2022-07-25T14:38:53.731Z,33.94
2022-07-25T14:40:56.920Z,34.26
2022-07-25T14:42:59.619Z,34.44
2022-07-25T14:45:02.318Z,34.23
2022-07-25T14:47:10.446Z,33.90
2022-07-25T14:49:15.553Z,34.21
2022-07-25T14:51:19.848Z,34.66
2022-07-25T14:53:22.578Z,34.20
2022-07-25T14:55:25.746Z,34.12
2022-07-25T14:57:28.773Z,34.46
2022-07-25T14:59:31.473Z,34.18
2022-07-25T15:01:34.640Z,33.91
2022-07-25T15:03:39.730Z,33.60
2022-07-25T15:05:42.710Z,33.71
2022-07-25T15:07:45.959Z,33.62
2022-07-25T15:09:48.671Z,33.62
2022-07-25T15:11:51.530Z,33.56
2022-07-25T15:13:54.510Z,33.62
2022-07-25T15:15:58.344Z,33.63
2022-07-25T15:18:01.122Z,33.16
2022-07-25T15:20:06.094Z,33.46
2022-07-25T15:22:08.793Z,33.35
2022-07-25T15:24:11.808Z,33.50
2022-07-25T15:26:14.795Z,33.58
2022-07-25T15:28:17.579Z,33.27
2022-07-25T15:30:20.401Z,33.13
2022-07-25T15:32:23.108Z,32.93
2022-07-25T15:34:26.165Z,33.10
2022-07-25T15:36:30.428Z,33.22
2022-07-25T15:38:33.401Z,32.96
2022-07-25T15:40:36.138Z,33.11
2022-07-25T15:42:39.908Z,32.89
2022-07-25T15:44:42.807Z,32.87
2022-07-25T15:46:46.292Z,32.66
2022-07-25T15:48:50.109Z,32.46
2022-07-25T15:50:52.941Z,32.66
2022-07-25T15:52:57.068Z,32.00
2022-07-25T15:55:00.138Z,32.06
2022-07-25T15:57:02.963Z,31.58
2022-07-25T15:59:06.210Z,31.46
2022-07-25T16:01:09.281Z,31.59
2022-07-25T16:03:13.847Z,30.98
2022-07-25T16:05:16.958Z,30.97
2022-07-25T16:07:19.707Z,30.91
2022-07-25T16:09:25.386Z,30.94
2022-07-25T16:11:28.141Z,31.10
2022-07-25T16:13:30.930Z,30.76
2022-07-25T16:15:33.756Z,30.67
2022-07-25T16:17:38.068Z,30.53
2022-07-25T16:19:40.750Z,30.52
2022-07-25T16:21:43.517Z,30.63
2022-07-25T16:23:46.433Z,30.74
2022-07-25T16:25:50.521Z,30.54
2022-07-25T16:27:53.337Z,30.55
2022-07-25T16:29:56.603Z,30.72
2022-07-25T16:31:59.358Z,30.76
2022-07-25T16:34:02.073Z,30.82
2022-07-25T16:36:05.348Z,30.97
2022-07-25T16:38:08.135Z,31.05
2022-07-25T16:40:14.834Z,31.01
2022-07-25T16:42:18.901Z,30.90
2022-07-25T16:44:23.656Z,30.88
2022-07-25T16:46:28.574Z,30.96
2022-07-25T16:48:31.883Z,31.25
2022-07-25T16:50:34.621Z,31.03
2022-07-25T16:52:37.605Z,30.86
2022-07-25T16:54:40.292Z,30.85
2022-07-25T16:56:43.621Z,30.95
2022-07-25T16:58:47.986Z,30.72
2022-07-25T17:00:50.695Z,30.88
2022-07-25T17:02:55.008Z,30.99
2022-07-25T17:04:57.794Z,30.94
2022-07-25T17:07:00.619Z,30.94
2022-07-25T17:09:03.348Z,31.25
2022-07-25T17:11:06.856Z,31.20
2022-07-25T17:13:09.825Z,31.25
2022-07-25T17:15:14.114Z,31.51
2022-07-25T17:17:16.795Z,31.75
2022-07-25T17:19:19.487Z,31.65
2022-07-25T17:21:22.348Z,31.58
2022-07-25T17:23:25.444Z,31.57
2022-07-25T17:25:28.283Z,31.43
2022-07-25T17:27:31.135Z,31.19
2022-07-25T17:29:33.908Z,30.96
2022-07-25T17:31:38.002Z,30.96
2022-07-25T17:33:40.740Z,30.76
2022-07-25T17:35:43.384Z,30.86
2022-07-25T17:37:46.459Z,30.74
2022-07-25T17:39:49.207Z,30.53
2022-07-25T17:41:52.019Z,30.59
2022-07-25T17:43:54.676Z,30.59
2022-07-25T17:45:57.537Z,30.30
2022-07-25T17:48:01.819Z,30.32
2022-07-25T17:50:05.430Z,30.36
2022-07-25T17:52:08.094Z,30.70
2022-07-25T17:54:11.037Z,30.58
2022-07-25T17:56:13.964Z,30.40
2022-07-25T17:58:16.673Z,30.13
2022-07-25T18:00:21.170Z,30.37
2022-07-25T18:02:24.238Z,30.14
2022-07-25T18:04:29.734Z,30.15
2022-07-25T18:06:32.815Z,29.83
2022-07-25T18:08:36.014Z,29.78
2022-07-25T18:10:38.714Z,29.61
2022-07-25T18:12:41.382Z,29.58
2022-07-25T18:14:44.060Z,29.53
2022-07-25T18:16:46.901Z,29.49
2022-07-25T18:18:49.652Z,29.31
2022-07-25T18:20:53.681Z,29.23
2022-07-25T18:22:58.547Z,29.01
2022-07-25T18:25:01.225Z,29.09
2022-07-25T18:27:05.664Z,29.12
2022-07-25T18:29:09.545Z,28.86
2022-07-25T18:31:12.504Z,28.68
2022-07-25T18:33:16.556Z,28.55
2022-07-25T18:35:19.278Z,28.38
2022-07-25T18:37:23.386Z,28.44
2022-07-25T18:39:26.129Z,28.16
2022-07-25T18:41:30.144Z,28.07
2022-07-25T18:43:33.169Z,28.10
2022-07-25T18:45:37.328Z,27.96
2022-07-25T18:47:40.325Z,27.89
2022-07-25T18:49:43.038Z,27.91
2022-07-25T18:51:45.749Z,27.86
2022-07-25T18:53:49.827Z,27.65
2022-07-25T18:55:52.510Z,27.61
2022-07-25T18:57:55.213Z,27.45
2022-07-25T19:00:02.601Z,27.59
2022-07-25T19:02:06.350Z,27.47
2022-07-25T19:04:09.354Z,27.39
2022-07-25T19:06:12.845Z,27.04
2022-07-25T19:08:16.382Z,27.12
2022-07-25T19:10:20.666Z,27.03
2022-07-25T19:12:26.187Z,27.07
2022-07-25T19:14:30.490Z,27.11
2022-07-25T19:16:33.621Z,26.87
2022-07-25T19:18:36.432Z,26.89
2022-07-25T19:20:39.507Z,26.81
2022-07-25T19:22:42.276Z,26.78
2022-07-25T19:24:45.128Z,26.68
2022-07-25T19:26:49.777Z,26.58
2022-07-25T19:28:52.470Z,26.58
2022-07-25T19:30:55.212Z,26.47
2022-07-25T19:32:57.916Z,26.43
2022-07-25T19:35:00.693Z,26.53
2022-07-25T19:37:03.556Z,26.40
2022-07-25T19:39:07.052Z,26.29
2022-07-25T19:41:09.985Z,26.43
2022-07-25T19:43:14.047Z,26.36
2022-07-25T19:45:16.740Z,26.39
2022-07-25T19:47:19.647Z,26.39
2022-07-25T19:49:22.335Z,26.17
2022-07-25T19:51:25.044Z,26.15
2022-07-25T19:53:28.773Z,26.21
2022-07-25T19:55:31.847Z,26.02
2022-07-25T19:57:34.528Z,25.94
2022-07-25T19:59:38.596Z,25.99
2022-07-25T20:01:41.531Z,26.01
2022-07-25T20:03:44.296Z,25.86
2022-07-25T20:05:46.981Z,25.82
2022-07-25T20:07:49.655Z,25.70
2022-07-25T20:09:52.430Z,25.67
2022-07-25T20:11:56.133Z,25.84
2022-07-25T20:13:58.952Z,25.79
2022-07-25T20:16:03.828Z,25.70
2022-07-25T20:18:06.781Z,25.62
2022-07-25T20:20:10.488Z,25.62
2022-07-25T20:22:13.536Z,25.60
2022-07-25T20:24:21.153Z,25.55
2022-07-25T20:26:24.282Z,25.49
2022-07-25T20:28:27.023Z,25.56
2022-07-25T20:30:34.464Z,25.45
2022-07-25T20:32:39.065Z,25.61
2022-07-25T20:34:41.763Z,25.67
2022-07-25T20:36:44.432Z,25.56
2022-07-25T20:38:47.229Z,25.37
2022-07-25T20:40:51.159Z,25.42
2022-07-25T20:42:53.965Z,25.42
2022-07-25T20:44:57.364Z,25.30
2022-07-25T20:47:00.153Z,25.42
2022-07-25T20:49:04.482Z,25.17
2022-07-25T20:51:07.690Z,25.21
2022-07-25T20:53:10.931Z,25.20
2022-07-25T20:55:13.673Z,24.96
2022-07-25T20:57:16.388Z,24.85
2022-07-25T20:59:19.077Z,25.09
2022-07-25T21:01:22.017Z,24.93
2022-07-25T21:03:24.880Z,25.03
2022-07-25T21:05:29.227Z,24.86
2022-07-25T21:07:31.942Z,24.71
2022-07-25T21:09:34.637Z,24.91
2022-07-25T21:11:37.787Z,24.69
2022-07-25T21:13:40.592Z,24.82
2022-07-25T21:15:43.348Z,24.78
2022-07-25T21:17:46.042Z,24.67
2022-07-25T21:19:48.749Z,24.60
2022-07-25T21:21:53.196Z,24.49
2022-07-25T21:23:55.876Z,24.58
2022-07-25T21:25:58.610Z,24.66
2022-07-25T21:28:01.274Z,24.60
2022-07-25T21:30:05.467Z,24.62
2022-07-25T21:32:09.192Z,24.55
2022-07-25T21:34:11.918Z,24.44
2022-07-25T21:36:14.590Z,24.48
2022-07-25T21:38:27.291Z,24.56
2022-07-25T21:40:31.127Z,24.39
2022-07-25T21:42:33.903Z,24.26
2022-07-25T21:44:36.697Z,24.28
2022-07-25T21:46:39.352Z,24.21
2022-07-25T21:48:59.846Z,24.30
2022-07-25T21:51:02.612Z,24.22
2022-07-25T21:53:13.373Z,24.25
2022-07-25T21:55:17.583Z,24.23
2022-07-25T21:57:20.346Z,24.15
2022-07-25T21:59:22.999Z,24.14
2022-07-25T22:01:25.839Z,24.05
2022-07-25T22:03:28.600Z,24.09
2022-07-25T22:05:31.457Z,24.13
2022-07-25T22:07:34.171Z,24.13
2022-07-25T22:09:37.017Z,23.97
2022-07-25T22:11:46.006Z,23.93
2022-07-25T22:13:49.349Z,24.02
2022-07-25T22:15:52.079Z,24.06
2022-07-25T22:17:54.748Z,24.08
2022-07-25T22:19:57.415Z,23.82
2022-07-25T22:22:00.131Z,23.70
2022-07-25T22:24:02.816Z,23.79
2022-07-25T22:26:05.529Z,23.61
2022-07-25T22:28:09.599Z,23.63
2022-07-25T22:30:19.447Z,23.55
2022-07-25T22:32:22.389Z,23.68
2022-07-25T22:34:25.080Z,23.57
2022-07-25T22:36:27.764Z,23.58
2022-07-25T22:38:30.411Z,23.50
2022-07-25T22:40:33.113Z,23.69
2022-07-25T22:42:35.738Z,23.59
2022-07-25T22:44:39.765Z,23.71
2022-07-25T22:46:42.618Z,23.80
2022-07-25T22:48:45.347Z,23.35
2022-07-25T22:50:48.554Z,23.54
2022-07-25T22:52:51.455Z,23.46
2022-07-25T22:54:54.064Z,23.51
2022-07-25T22:56:56.908Z,23.41
2022-07-25T22:58:59.766Z,23.46
2022-07-25T23:01:03.843Z,23.54
2022-07-25T23:03:06.601Z,23.49
2022-07-25T23:05:10.257Z,23.47
2022-07-25T23:07:12.923Z,23.58
2022-07-25T23:09:15.708Z,23.39
2022-07-25T23:11:18.702Z,23.44
2022-07-25T23:13:21.394Z,23.39
2022-07-25T23:15:24.069Z,23.31
2022-07-25T23:17:32.273Z,23.44
2022-07-25T23:19:34.952Z,23.30
2022-07-25T23:21:37.629Z,23.52
2022-07-25T23:23:41.908Z,23.53
2022-07-25T23:25:44.696Z,23.51
2022-07-25T23:27:47.347Z,23.40
2022-07-25T23:29:50.052Z,23.46
2022-07-25T23:31:52.739Z,23.55
2022-07-25T23:33:56.785Z,23.44
2022-07-25T23:35:59.584Z,23.55
2022-07-25T23:38:02.341Z,23.45
2022-07-25T23:40:06.263Z,23.28
2022-07-25T23:42:09.079Z,23.37
2022-07-25T23:44:11.995Z,23.26
2022-07-25T23:46:14.811Z,22.98
2022-07-25T23:48:18.290Z,22.86
2022-07-25T23:50:22.500Z,22.91
2022-07-25T23:52:25.172Z,22.85
2022-07-25T23:54:27.896Z,22.94
2022-07-25T23:56:31.028Z,22.92
2022-07-25T23:58:33.691Z,23.02
